Time;durP1;ratioP1;P1;durP2;ratioP2;P2;SDS_P1;SDS_P2;PMS_P1;PMS_P2;Temp;Humidity;BMP_temperature;BMP_pressure;BME280_temperature;BME280_humidity;BME280_pressure;Samples;Min_cycle;Max_cycle;Signal;HPM_P1;HPM_P2
2022/10/16 00:01:58;;;;;;;2.50;2.30;;;;;;;15.04;66.81;99299.56;5112170;28;20130;-61
2022/10/16 00:04:24;;;;;;;3.95;2.63;;;;;;;15.03;66.89;99295.22;5112257;27;20047;-62
2022/10/16 00:06:51;;;;;;;6.07;2.80;;;;;;;15.02;66.90;99304.16;5112344;27;20040;-64
2022/10/16 00:09:18;;;;;;;4.80;2.97;;;;;;;15.00;67.04;99290.19;5111823;28;20142;-63
2022/10/16 00:11:44;;;;;;;3.90;2.75;;;;;;;15.00;67.08;99292.81;5112150;28;20093;-61
2022/10/16 00:14:13;;;;;;;5.18;3.20;;;;;;;14.98;67.19;99303.56;5112361;28;20393;-61
2022/10/16 00:16:40;;;;;;;6.30;3.63;;;;;;;14.97;67.11;99302.72;5110796;28;20047;-61
2022/10/16 00:19:07;;;;;;;5.53;3.05;;;;;;;14.97;67.18;99304.53;5111657;28;20083;-61
2022/10/16 00:21:34;;;;;;;5.45;3.55;;;;;;;14.96;67.23;99308.97;5111855;28;20047;-64
2022/10/16 00:24:08;;;;;;;7.85;3.40;;;;;;;14.94;67.94;99304.78;5112047;28;20477;-61
2022/10/16 00:26:36;;;;;;;6.28;3.28;;;;;;;14.95;67.47;99301.19;5111882;28;20097;-62
2022/10/16 00:29:04;;;;;;;5.57;3.55;;;;;;;14.94;67.46;99304.78;5111640;28;20047;-61
2022/10/16 00:31:31;;;;;;;8.38;3.50;;;;;;;14.92;67.83;99296.94;5111723;28;20055;-62
2022/10/16 00:33:57;;;;;;;4.75;3.53;;;;;;;14.92;67.52;99296.13;5111143;28;20090;-62
2022/10/16 00:36:25;;;;;;;5.68;3.63;;;;;;;14.91;67.70;99305.03;5111828;28;20498;-62
2022/10/16 00:38:59;;;;;;;4.90;3.80;;;;;;;14.89;68.13;99296.38;5110532;28;20043;-62
2022/10/16 00:41:31;;;;;;;6.65;3.58;;;;;;;14.90;67.90;99298.03;5111679;28;20452;-62
2022/10/16 00:44:03;;;;;;;4.45;3.53;;;;;;;14.87;68.39;99295.66;5110519;28;20285;-61
2022/10/16 00:46:38;;;;;;;9.15;4.18;;;;;;;14.85;68.58;99303.75;5111675;28;20105;-63
2022/10/16 00:49:08;;;;;;;6.28;4.20;;;;;;;14.86;68.03;99308.06;5110325;28;20293;-62
2022/10/16 00:51:41;;;;;;;8.68;4.57;;;;;;;14.82;68.69;99301.34;5110473;28;20458;-63
2022/10/16 00:54:22;;;;;;;5.63;4.15;;;;;;;14.80;68.93;99309.41;5111620;28;20134;-61
2022/10/16 00:56:50;;;;;;;5.38;4.13;;;;;;;14.83;68.13;99310.97;5110321;28;20553;-62
2022/10/16 00:59:24;;;;;;;8.50;5.00;;;;;;;14.78;69.05;99298.09;5111056;28;20090;-65
2022/10/16 01:01:52;;;;;;;6.07;4.88;;;;;;;14.80;68.36;99301.44;5110323;28;20077;-62
2022/10/16 01:04:19;;;;;;;7.28;4.80;;;;;;;14.79;68.46;99296.28;5110261;28;20487;-61
2022/10/16 01:06:57;;;;;;;6.22;4.63;;;;;;;14.76;69.19;99301.81;5111348;28;20051;-62
2022/10/16 01:09:27;;;;;;;8.13;4.68;;;;;;;14.76;69.12;99296.53;5109893;28;20548;-61
2022/10/16 01:12:14;;;;;;;9.48;5.30;;;;;;;14.72;69.32;99290.63;5111378;28;20487;-61
2022/10/16 01:14:56;;;;;;;6.82;4.75;;;;;;;14.76;68.55;99294.72;5111524;28;20094;-62
2022/10/16 01:17:40;;;;;;;6.82;5.07;;;;;;;14.71;69.58;99291.59;5110106;28;20495;-61
2022/10/16 01:20:30;;;;;;;10.82;5.38;;;;;;;14.69;69.64;99291.72;5111450;28;20048;-62
2022/10/16 01:23:16;;;;;;;12.38;5.88;;;;;;;14.68;69.85;99291.84;5110170;28;20044;-61
2022/10/16 01:26:13;;;;;;;7.25;5.57;;;;;;;14.67;69.80;99303.41;5110032;28;20090;-62
2022/10/16 01:29:08;;;;;;;8.98;5.00;;;;;;;14.65;69.93;99297.41;5111334;28;20059;-61
2022/10/16 01:31:39;;;;;;;9.43;5.80;;;;;;;14.66;69.42;99301.72;5111366;28;20086;-61
2022/10/16 01:34:14;;;;;;;11.68;5.75;;;;;;;14.64;69.64;99293.91;5109931;28;20100;-62
2022/10/16 01:36:56;;;;;;;7.35;5.53;;;;;;;14.62;70.15;99300.28;5110153;28;20090;-61
2022/10/16 01:39:28;;;;;;;9.88;5.57;;;;;;;14.65;69.44;99305.34;5109869;28;20453;-61
2022/10/16 01:42:01;;;;;;;12.03;6.07;;;;;;;14.62;70.00;99301.16;5110018;28;20063;-62
2022/10/16 01:44:32;;;;;;;8.60;5.88;;;;;;;14.61;69.76;99294.13;5113324;28;20051;-61
2022/10/16 01:47:00;;;;;;;10.55;6.35;;;;;;;14.62;69.54;99301.16;5113909;28;20082;-61
2022/10/16 01:49:31;;;;;;;7.20;5.95;;;;;;;14.62;69.87;99301.16;5113554;28;20058;-62
2022/10/16 01:52:01;;;;;;;8.25;5.82;;;;;;;14.60;70.08;99300.41;5113923;28;20477;-61
2022/10/16 01:54:31;;;;;;;9.75;6.43;;;;;;;14.60;70.05;99300.41;5113580;28;20056;-62
2022/10/16 01:56:59;;;;;;;14.35;6.63;;;;;;;14.61;69.98;99299.44;5113435;28;20083;-62
2022/10/16 01:59:30;;;;;;;8.40;6.32;;;;;;;14.59;70.37;99306.69;5112831;28;20086;-63
2022/10/16 02:02:01;;;;;;;7.22;6.35;;;;;;;14.60;70.41;99313.66;5113626;28;20043;-63
2022/10/16 02:04:34;;;;;;;8.30;6.22;;;;;;;14.58;70.87;99300.53;5113436;28;20087;-61
2022/10/16 02:07:01;;;;;;;11.38;6.30;;;;;;;14.63;70.24;99308.13;5113397;28;20052;-61
2022/10/16 02:09:30;;;;;;;13.88;6.75;;;;;;;14.62;70.38;99301.16;5114020;28;20051;-61
2022/10/16 02:12:02;;;;;;;8.18;6.35;;;;;;;14.62;70.75;99301.16;5113273;28;20511;-61
2022/10/16 02:14:29;;;;;;;8.93;6.93;;;;;;;14.65;70.38;99306.16;5113389;28;20098;-62
2022/10/16 02:16:55;;;;;;;11.18;7.03;;;;;;;14.65;70.43;99305.34;5113313;28;20083;-61
2022/10/16 02:19:22;;;;;;;7.72;6.18;;;;;;;14.66;70.56;99307.84;5113810;28;20040;-64
2022/10/16 02:21:53;;;;;;;12.90;7.45;;;;;;;14.66;70.74;99318.44;5114239;28;20039;-61
2022/10/16 02:24:26;;;;;;;8.60;6.82;;;;;;;14.65;71.34;99306.16;5114052;28;20047;-63
2022/10/16 02:27:02;;;;;;;7.50;6.57;;;;;;;14.66;71.15;99302.53;5113161;28;20558;-62
2022/10/16 02:29:30;;;;;;;8.13;6.45;;;;;;;14.69;70.48;99297.00;5112615;28;20055;-63
2022/10/16 02:32:03;;;;;;;12.85;6.63;;;;;;;14.68;71.19;99297.97;5112901;28;20100;-62
2022/10/16 02:34:33;;;;;;;8.68;6.25;;;;;;;14.70;71.06;99297.84;5112953;28;20179;-60
2022/10/16 02:37:03;;;;;;;11.15;6.57;;;;;;;14.70;70.83;99298.69;5112603;28;20040;-61
2022/10/16 02:39:30;;;;;;;9.50;6.70;;;;;;;14.72;70.84;99307.34;5113804;28;20052;-61
2022/10/16 02:41:57;;;;;;;12.23;6.57;;;;;;;14.72;70.73;99303.84;5112611;28;20055;-62
2022/10/16 02:44:24;;;;;;;8.18;5.95;;;;;;;14.72;70.72;99296.75;5113783;28;20130;-62
2022/10/16 02:46:50;;;;;;;8.45;6.18;;;;;;;14.73;70.81;99302.91;5113836;28;20079;-61
2022/10/16 02:49:17;;;;;;;9.10;6.38;;;;;;;14.73;70.75;99297.63;5113350;28;20104;-63
2022/10/16 02:51:44;;;;;;;9.90;5.88;;;;;;;14.73;70.73;99298.44;5113820;28;20096;-61
2022/10/16 02:54:10;;;;;;;7.80;5.95;;;;;;;14.76;70.94;99301.81;5113463;28;20086;-61
2022/10/16 02:56:37;;;;;;;9.48;6.97;;;;;;;14.77;71.09;99304.34;5113180;28;20097;-64
2022/10/16 02:59:04;;;;;;;9.82;6.15;;;;;;;14.78;71.16;99306.06;5113186;28;20048;-61
2022/10/16 03:01:30;;;;;;;10.35;6.95;;;;;;;14.78;71.10;99300.75;5113446;28;20079;-62
2022/10/16 03:03:57;;;;;;;8.32;6.53;;;;;;;14.80;71.24;99308.59;5113459;28;20054;-63
2022/10/16 03:06:24;;;;;;;11.88;6.53;;;;;;;14.81;71.29;99299.66;5113489;28;20094;-61
2022/10/16 03:08:50;;;;;;;10.63;5.88;;;;;;;14.83;71.15;99308.31;5113000;28;20094;-60
2022/10/16 03:11:17;;;;;;;8.93;6.20;;;;;;;14.84;71.11;99310.84;5113339;28;20582;-60
2022/10/16 03:13:43;;;;;;;10.25;6.35;;;;;;;14.86;71.25;99308.06;5113316;27;20062;-63
2022/10/16 03:16:10;;;;;;;8.30;5.88;;;;;;;14.87;71.37;99308.91;5113116;28;20055;-62
2022/10/16 03:18:37;;;;;;;9.35;5.40;;;;;;;14.90;71.21;99303.34;5112822;28;20518;-62
2022/10/16 03:21:04;;;;;;;12.00;6.28;;;;;;;14.90;71.28;99304.19;5113264;28;20063;-64
2022/10/16 03:23:31;;;;;;;8.75;5.53;;;;;;;14.92;71.40;99299.59;5112002;28;20134;-60
2022/10/16 03:25:58;;;;;;;8.57;5.60;;;;;;;14.94;71.28;99300.31;5112872;28;20039;-62
2022/10/16 03:28:25;;;;;;;7.85;4.97;;;;;;;14.95;71.23;99302.00;5112636;28;20134;-61
2022/10/16 03:30:52;;;;;;;7.45;4.72;;;;;;;14.96;71.17;99301.03;5112657;28;20051;-63
2022/10/16 03:33:18;;;;;;;7.78;5.85;;;;;;;14.96;71.30;99302.84;5113005;28;20039;-61
2022/10/16 03:35:54;;;;;;;6.57;5.15;;;;;;;14.96;71.90;99316.91;5112883;28;20075;-62
2022/10/16 03:38:21;;;;;;;6.97;5.03;;;;;;;14.98;71.11;99320.31;5112627;28;20100;-61
2022/10/16 03:40:48;;;;;;;9.35;5.25;;;;;;;15.00;71.21;99320.19;5112484;28;20109;-65
2022/10/16 03:43:14;;;;;;;7.93;4.53;;;;;;;15.01;71.10;99315.69;5112641;28;20092;-62
2022/10/16 03:45:41;;;;;;;8.45;5.35;;;;;;;15.01;71.09;99315.69;5112632;27;20044;-62
2022/10/16 03:48:08;;;;;;;8.93;5.32;;;;;;;15.01;71.04;99323.66;5112227;28;20484;-63
2022/10/16 03:50:34;;;;;;;10.65;5.40;;;;;;;15.01;70.94;99315.69;5112542;28;20083;-61
2022/10/16 03:53:01;;;;;;;7.72;4.68;;;;;;;15.02;70.99;99312.09;5112667;28;20108;-62
2022/10/16 03:55:28;;;;;;;8.52;4.90;;;;;;;15.01;70.91;99310.41;5112578;28;20047;-61
2022/10/16 03:57:54;;;;;;;7.60;4.70;;;;;;;15.01;70.80;99315.69;5112170;28;20138;-64
2022/10/16 04:00:21;;;;;;;6.57;4.32;;;;;;;15.01;70.69;99310.41;5111854;28;20100;-63
2022/10/16 04:02:47;;;;;;;6.45;5.05;;;;;;;15.02;70.97;99312.09;5112458;28;20059;-62
2022/10/16 04:05:14;;;;;;;7.25;4.63;;;;;;;15.00;70.89;99311.38;5112237;28;20450;-60
2022/10/16 04:07:40;;;;;;;6.00;4.47;;;;;;;15.01;70.81;99321.00;5111204;28;20074;-62
2022/10/16 04:10:07;;;;;;;6.85;4.72;;;;;;;15.00;70.95;99321.97;5111878;28;20627;-61
2022/10/16 04:12:34;;;;;;;6.13;4.35;;;;;;;14.98;70.89;99317.66;5110799;28;20055;-60
2022/10/16 04:15:01;;;;;;;7.05;4.78;;;;;;;14.98;70.94;99325.59;5112300;28;20051;-64
2022/10/16 04:17:27;;;;;;;5.47;4.20;;;;;;;14.97;70.91;99334.53;5111937;28;20093;-62
2022/10/16 04:19:54;;;;;;;9.93;4.90;;;;;;;14.97;70.94;99333.69;5111838;28;20039;-61
2022/10/16 04:22:21;;;;;;;7.57;4.50;;;;;;;14.96;70.83;99335.47;5112113;28;20083;-61
2022/10/16 04:24:48;;;;;;;5.93;4.63;;;;;;;14.95;70.72;99338.28;5111755;28;20047;-63
2022/10/16 04:27:14;;;;;;;11.15;4.93;;;;;;;14.95;70.92;99348.88;5111793;28;20496;-61
2022/10/16 04:29:41;;;;;;;5.63;4.10;;;;;;;14.93;70.79;99346.34;5111599;28;20469;-64
2022/10/16 04:32:08;;;;;;;4.97;4.10;;;;;;;14.92;70.83;99355.25;5111752;28;20162;-63
2022/10/16 04:34:35;;;;;;;9.07;4.28;;;;;;;14.92;70.71;99352.59;5111767;28;20052;-63
2022/10/16 04:37:02;;;;;;;6.88;4.40;;;;;;;14.92;70.86;99341.16;5110647;28;20126;-61
2022/10/16 04:39:28;;;;;;;6.63;4.18;;;;;;;14.91;70.79;99342.97;5110484;28;20077;-61
2022/10/16 04:41:55;;;;;;;5.55;4.47;;;;;;;14.91;70.85;99339.50;5111447;28;20086;-64
2022/10/16 04:44:22;;;;;;;6.72;4.43;;;;;;;14.90;70.72;99336.00;5111812;28;20143;-61
2022/10/16 04:46:50;;;;;;;6.75;4.15;;;;;;;14.89;70.95;99354.66;5111710;28;20143;-61
2022/10/16 04:49:17;;;;;;;8.77;4.47;;;;;;;14.89;70.78;99363.47;5110302;28;20088;-61
2022/10/16 04:51:44;;;;;;;5.93;4.20;;;;;;;14.89;70.90;99365.25;5111609;28;20059;-62
2022/10/16 04:54:10;;;;;;;7.13;4.00;;;;;;;14.87;70.62;99357.44;5111467;28;20130;-61
2022/10/16 04:56:43;;;;;;;7.80;4.05;;;;;;;14.86;70.66;99363.72;5111700;28;20135;-60
2022/10/16 04:59:09;;;;;;;7.05;3.88;;;;;;;14.85;70.80;99365.50;5111475;28;20170;-62
2022/10/16 05:01:36;;;;;;;5.72;3.78;;;;;;;14.84;70.75;99363.84;5111370;28;20475;-61
2022/10/16 05:04:02;;;;;;;7.63;3.33;;;;;;;14.84;70.74;99368.31;5110316;28;20124;-61
2022/10/16 05:06:29;;;;;;;4.50;3.35;;;;;;;14.82;70.71;99362.28;5111726;28;20121;-62
2022/10/16 05:08:56;;;;;;;5.25;3.63;;;;;;;14.82;70.77;99356.97;5111328;28;20135;-64
2022/10/16 05:11:22;;;;;;;6.25;3.58;;;;;;;14.82;70.67;99354.31;5111559;28;20087;-62
2022/10/16 05:13:49;;;;;;;4.70;3.65;;;;;;;14.80;70.67;99366.88;5111421;28;20087;-61
2022/10/16 05:16:21;;;;;;;10.05;4.10;;;;;;;14.79;70.59;99376.63;5111455;28;20051;-61
2022/10/16 05:18:47;;;;;;;4.50;3.60;;;;;;;14.78;70.64;99376.72;5112427;28;20051;-63
2022/10/16 05:21:18;;;;;;;5.18;3.30;;;;;;;14.77;70.61;99383.84;5115186;28;20043;-62
2022/10/16 05:23:45;;;;;;;4.55;3.38;;;;;;;14.77;70.81;99383.00;5115288;28;20093;-65
2022/10/16 05:26:12;;;;;;;4.68;3.13;;;;;;;14.73;70.70;99375.28;5115624;28;20104;-61
2022/10/16 05:28:38;;;;;;;4.25;3.00;;;;;;;14.73;70.89;99377.09;5115187;28;20109;-64
2022/10/16 05:31:07;;;;;;;5.85;3.25;;;;;;;14.71;70.80;99381.66;5115249;28;20048;-61
2022/10/16 05:33:34;;;;;;;6.45;3.25;;;;;;;14.71;70.96;99387.81;5114030;28;20089;-61
2022/10/16 05:36:02;;;;;;;5.20;3.15;;;;;;;14.70;70.68;99396.69;5113202;28;20043;-63
2022/10/16 05:38:29;;;;;;;4.05;3.25;;;;;;;14.70;70.81;99398.53;5115005;28;20411;-61
2022/10/16 05:40:56;;;;;;;8.05;3.47;;;;;;;14.69;70.89;99397.66;5115092;28;20134;-61
2022/10/16 05:43:22;;;;;;;4.50;2.72;;;;;;;14.70;70.95;99406.47;5113929;28;20048;-63
2022/10/16 05:45:57;;;;;;;4.00;3.50;;;;;;;14.66;71.35;99402.38;5115028;28;20044;-61
2022/10/16 05:48:24;;;;;;;7.30;3.50;;;;;;;14.69;70.88;99399.50;5113939;28;20096;-61
2022/10/16 05:51:12;;;;;;;5.28;3.55;;;;;;;14.65;71.55;99406.00;5114791;28;20134;-63
2022/10/16 05:53:40;;;;;;;5.10;3.03;;;;;;;14.68;70.92;99409.25;5113563;28;20124;-61
2022/10/16 05:56:10;;;;;;;3.92;3.53;;;;;;;14.68;71.06;99416.34;5113792;28;20736;-62
2022/10/16 05:58:40;;;;;;;3.45;3.03;;;;;;;14.67;70.84;99418.16;5113170;28;20051;-61
2022/10/16 06:01:13;;;;;;;4.93;3.10;;;;;;;14.65;71.07;99422.72;5113447;27;20048;-61
2022/10/16 06:03:40;;;;;;;4.28;2.83;;;;;;;14.67;70.86;99423.47;5112969;27;20146;-63
2022/10/16 06:06:08;;;;;;;3.80;2.60;;;;;;;14.66;70.66;99421.75;5113476;28;20079;-61
2022/10/16 06:08:39;;;;;;;5.18;3.20;;;;;;;14.67;70.69;99430.56;5114454;28;20681;-62
2022/10/16 06:11:08;;;;;;;2.90;2.63;;;;;;;14.64;70.94;99433.44;5114408;28;20090;-63
2022/10/16 06:13:34;;;;;;;4.13;3.10;;;;;;;14.65;70.76;99429.84;5113129;28;20055;-61
2022/10/16 06:16:03;;;;;;;4.07;2.60;;;;;;;14.64;70.97;99438.72;5114619;28;20063;-64
2022/10/16 06:18:30;;;;;;;3.58;3.00;;;;;;;14.63;70.90;99439.72;5113864;28;20096;-64
2022/10/16 06:20:57;;;;;;;3.80;3.00;;;;;;;14.62;70.88;99436.22;5114170;28;20074;-63
2022/10/16 06:23:24;;;;;;;6.43;3.35;;;;;;;14.62;70.87;99440.69;5113818;28;20087;-63
2022/10/16 06:25:51;;;;;;;3.50;2.97;;;;;;;14.60;70.94;99448.75;5113961;28;20155;-61
2022/10/16 06:28:18;;;;;;;3.97;2.90;;;;;;;14.62;70.84;99452.13;5113811;28;20046;-61
2022/10/16 06:30:45;;;;;;;4.25;2.67;;;;;;;14.60;71.04;99456.69;5112065;28;20055;-61
2022/10/16 06:33:12;;;;;;;4.20;2.70;;;;;;;14.61;70.95;99457.53;5112414;28;20048;-61
2022/10/16 06:35:38;;;;;;;4.03;2.70;;;;;;;14.61;71.08;99461.00;5113616;28;20047;-62
2022/10/16 06:38:05;;;;;;;7.28;3.00;;;;;;;14.62;71.15;99460.06;5112342;28;20544;-61
2022/10/16 06:40:32;;;;;;;5.95;2.95;;;;;;;14.63;71.07;99466.19;5113590;28;20450;-63
2022/10/16 06:42:58;;;;;;;4.10;2.45;;;;;;;14.65;70.95;99474.88;5114033;28;20130;-61
2022/10/16 06:45:25;;;;;;;3.28;2.28;;;;;;;14.64;70.89;99474.03;5114058;28;20112;-61
2022/10/16 06:47:51;;;;;;;4.57;2.33;;;;;;;14.64;71.18;99479.31;5113834;28;20075;-61
2022/10/16 06:50:18;;;;;;;5.05;2.42;;;;;;;14.65;71.06;99485.47;5113289;28;20126;-64
2022/10/16 06:52:44;;;;;;;3.33;2.30;;;;;;;14.66;71.12;99487.16;5113661;28;20090;-61
2022/10/16 06:55:11;;;;;;;4.07;2.15;;;;;;;14.66;70.87;99487.97;5113261;28;20087;-64
2022/10/16 06:57:37;;;;;;;2.78;2.13;;;;;;;14.68;71.17;99501.09;5113576;28;20130;-61
2022/10/16 07:00:05;;;;;;;4.22;2.30;;;;;;;14.68;71.16;99501.97;5112900;28;20092;-64
2022/10/16 07:02:31;;;;;;;4.15;2.35;;;;;;;14.70;71.25;99499.19;5113699;28;20070;-61
2022/10/16 07:04:58;;;;;;;5.13;2.17;;;;;;;14.70;71.03;99509.78;5113517;28;20055;-61
2022/10/16 07:07:26;;;;;;;4.30;2.35;;;;;;;14.71;71.21;99522.06;5113155;28;20100;-62
2022/10/16 07:09:53;;;;;;;3.83;2.30;;;;;;;14.72;70.94;99539.66;5111944;28;20117;-63
2022/10/16 07:12:19;;;;;;;4.18;2.60;;;;;;;14.72;71.04;99548.44;5113476;28;20051;-62
2022/10/16 07:14:46;;;;;;;4.60;2.03;;;;;;;14.73;71.06;99552.78;5113332;28;20055;-61
2022/10/16 07:17:12;;;;;;;2.65;1.88;;;;;;;14.75;71.03;99554.47;5113295;28;20138;-64
2022/10/16 07:19:39;;;;;;;4.07;2.53;;;;;;;14.73;70.86;99550.13;5112929;28;20075;-61
2022/10/16 07:22:06;;;;;;;8.00;2.67;;;;;;;14.75;71.02;99549.16;5113031;28;20483;-61
2022/10/16 07:24:33;;;;;;;3.22;2.22;;;;;;;14.75;70.99;99557.97;5112718;28;20139;-64
2022/10/16 07:26:59;;;;;;;2.80;2.10;;;;;;;14.76;71.04;99564.97;5113396;28;20059;-61
2022/10/16 07:29:26;;;;;;;2.88;2.50;;;;;;;14.78;71.02;99560.41;5112644;28;20083;-61
2022/10/16 07:31:53;;;;;;;3.22;2.13;;;;;;;14.79;71.20;99561.22;5112999;28;20055;-62
2022/10/16 07:34:21;;;;;;;3.83;2.05;;;;;;;14.79;71.61;99570.03;5112830;28;20094;-61
2022/10/16 07:36:49;;;;;;;4.95;1.95;;;;;;;14.82;71.44;99571.59;5111687;28;20055;-62
2022/10/16 07:39:17;;;;;;;2.40;1.98;;;;;;;14.84;71.33;99577.66;5112416;28;20047;-61
2022/10/16 07:41:43;;;;;;;2.75;2.15;;;;;;;14.87;71.30;99587.97;5112707;27;20044;-62
2022/10/16 07:44:10;;;;;;;4.40;2.30;;;;;;;14.90;71.38;99589.53;5112632;28;20047;-61
2022/10/16 07:46:37;;;;;;;5.22;2.38;;;;;;;14.93;71.50;99592.81;5112469;28;20051;-60
2022/10/16 07:49:03;;;;;;;2.38;2.10;;;;;;;14.97;71.56;99602.22;5112289;28;20093;-60
2022/10/16 07:51:30;;;;;;;3.50;2.60;;;;;;;15.01;71.44;99601.97;5112394;28;20078;-62
2022/10/16 07:53:57;;;;;;;4.97;2.00;;;;;;;15.03;71.65;99608.81;5112466;28;20047;-61
2022/10/16 07:56:24;;;;;;;2.45;1.92;;;;;;;15.08;71.45;99609.34;5111251;28;20047;-62
2022/10/16 07:58:51;;;;;;;2.50;2.20;;;;;;;15.12;71.58;99615.22;5112190;28;20079;-62
2022/10/16 08:01:19;;;;;;;4.88;2.25;;;;;;;15.16;71.50;99616.69;5111952;28;20520;-64
2022/10/16 08:03:50;;;;;;;4.38;2.60;;;;;;;15.18;71.40;99620.03;5112482;28;20525;-61
2022/10/16 08:06:19;;;;;;;2.72;2.05;;;;;;;15.24;71.55;99619.56;5111239;28;20040;-61
2022/10/16 08:08:52;;;;;;;4.13;2.50;;;;;;;15.30;71.53;99612.09;5111170;28;20047;-62
2022/10/16 08:11:18;;;;;;;4.65;2.20;;;;;;;15.34;71.62;99619.69;5111990;28;20134;-61
2022/10/16 08:13:45;;;;;;;3.70;2.17;;;;;;;15.39;71.44;99616.66;5112096;28;20503;-62
2022/10/16 08:16:12;;;;;;;5.93;2.47;;;;;;;15.44;71.37;99622.44;5111821;28;20047;-62
2022/10/16 08:18:39;;;;;;;3.45;2.17;;;;;;;15.48;71.34;99629.19;5111914;28;20047;-61
2022/10/16 08:21:12;;;;;;;3.33;1.98;;;;;;;15.53;71.37;99636.78;5110713;28;20480;-63
2022/10/16 08:23:46;;;;;;;4.57;2.10;;;;;;;15.60;71.51;99640.63;5110899;28;20104;-64
2022/10/16 08:26:16;;;;;;;2.33;1.98;;;;;;;15.66;71.48;99636.63;5111874;28;20055;-61
2022/10/16 08:28:43;;;;;;;5.50;2.40;;;;;;;15.72;71.45;99641.44;5111633;28;20075;-61
2022/10/16 08:31:15;;;;;;;5.00;2.20;;;;;;;15.79;71.48;99643.59;5111719;28;20044;-60
2022/10/16 08:33:46;;;;;;;5.50;2.50;;;;;;;15.86;71.38;99650.09;5112014;28;20056;-63
2022/10/16 08:36:14;;;;;;;4.07;2.30;;;;;;;15.93;71.39;99651.31;5110636;28;20075;-62
2022/10/16 08:38:40;;;;;;;2.63;1.98;;;;;;;15.99;71.35;99648.16;5093844;28;20100;-62
2022/10/16 08:41:13;;;;;;;3.63;1.98;;;;;;;16.03;70.96;99656.72;5111542;28;20047;-62
2022/10/16 08:43:39;;;;;;;4.32;1.98;;;;;;;16.11;71.11;99650.78;5111700;28;20100;-60
2022/10/16 08:46:15;;;;;;;7.22;2.00;;;;;;;16.17;70.89;99652.94;5111728;28;20051;-61
2022/10/16 08:48:49;;;;;;;2.70;2.05;;;;;;;16.22;70.71;99665.84;5111842;28;20051;-61
2022/10/16 08:51:23;;;;;;;4.32;1.65;;;;;;;16.27;70.68;99661.00;5110398;28;20705;-62
2022/10/16 08:53:59;;;;;;;2.85;1.63;;;;;;;16.32;70.77;99665.91;5109835;28;20043;-61
2022/10/16 08:56:26;;;;;;;4.70;1.95;;;;;;;16.40;70.77;99666.97;5111661;28;20087;-60
2022/10/16 08:58:54;;;;;;;2.95;1.80;;;;;;;16.47;70.60;99669.94;5111594;28;20097;-61
2022/10/16 09:01:50;;;;;;;5.88;1.90;;;;;;;16.52;70.44;99674.91;5111529;28;20044;-60
2022/10/16 09:04:45;;;;;;;6.40;2.40;;;;;;;16.57;70.17;99666.53;5110256;28;20052;-60
2022/10/16 09:07:35;;;;;;;5.72;1.77;;;;;;;16.64;69.83;99670.34;5111374;28;20754;-62
2022/10/16 09:10:23;;;;;;;1.80;1.42;;;;;;;16.69;69.61;99665.50;5103120;28;20071;-61
2022/10/16 09:13:15;;;;;;;3.58;1.70;;;;;;;16.75;69.60;99680.09;5110195;28;20047;-61
2022/10/16 09:16:12;;;;;;;2.75;1.38;;;;;;;16.82;69.41;99693.69;5110380;28;20124;-61
2022/10/16 09:18:47;;;;;;;4.82;1.23;;;;;;;16.88;68.90;99686.03;5083908;28;20491;-61
2022/10/16 09:21:25;;;;;;;3.22;1.48;;;;;;;16.93;68.40;99694.47;5111216;28;20055;-64
2022/10/16 09:23:56;;;;;;;4.35;1.70;;;;;;;17.02;68.93;99702.63;5111316;28;20075;-61
2022/10/16 09:26:23;;;;;;;3.83;1.45;;;;;;;17.09;69.45;99711.81;5109690;28;20140;-60
2022/10/16 09:28:55;;;;;;;3.38;1.67;;;;;;;17.15;69.11;99715.75;5108083;28;20465;-62
2022/10/16 09:31:23;;;;;;;5.38;1.77;;;;;;;17.23;69.24;99712.44;5110833;28;20043;-63
2022/10/16 09:33:59;;;;;;;5.18;1.42;;;;;;;17.30;69.01;99721.56;5107195;28;20047;-62
2022/10/16 09:36:27;;;;;;;3.95;1.30;;;;;;;17.41;69.10;99720.63;5111778;28;20047;-64
2022/10/16 09:39:05;;;;;;;6.60;1.58;;;;;;;17.47;67.74;99720.13;5109493;28;20055;-61
2022/10/16 09:41:36;;;;;;;4.72;1.08;;;;;;;17.57;68.08;99721.00;5110515;28;20047;-61
2022/10/16 09:44:06;;;;;;;4.55;1.10;;;;;;;17.65;68.15;99719.50;5109202;28;20127;-61
2022/10/16 09:46:35;;;;;;;5.15;1.30;;;;;;;17.70;67.52;99743.88;5109515;28;20689;-62
2022/10/16 09:49:21;;;;;;;4.43;1.10;;;;;;;17.71;66.36;99732.25;5109135;28;20116;-63
2022/10/16 09:51:48;;;;;;;2.53;1.08;;;;;;;17.79;66.78;99735.09;5108706;28;20082;-61
2022/10/16 09:54:20;;;;;;;4.80;1.17;;;;;;;17.79;66.00;99739.59;5107692;28;20052;-61
2022/10/16 09:56:54;;;;;;;2.42;1.20;;;;;;;17.80;66.73;99738.59;5110383;28;20055;-61
2022/10/16 09:59:26;;;;;;;2.95;1.10;;;;;;;17.81;66.76;99740.28;5108620;28;20047;-62
2022/10/16 10:01:55;;;;;;;5.22;1.40;;;;;;;17.84;66.47;99754.16;5110381;28;20048;-61
2022/10/16 10:04:28;;;;;;;5.03;0.90;;;;;;;17.87;66.22;99752.22;5109015;28;20133;-61
2022/10/16 10:06:56;;;;;;;3.38;1.20;;;;;;;17.94;66.23;99745.38;5110174;28;20047;-63
2022/10/16 10:09:36;;;;;;;2.13;1.25;;;;;;;17.95;65.07;99749.72;5112818;28;20047;-61
2022/10/16 10:12:05;;;;;;;2.63;1.08;;;;;;;18.03;65.56;99731.25;5112123;28;20040;-60
2022/10/16 10:14:38;;;;;;;3.17;1.17;;;;;;;18.04;65.20;99740.91;5111291;28;20779;-61
2022/10/16 10:17:04;;;;;;;2.60;1.15;;;;;;;18.13;66.26;99741.09;5113774;28;20052;-64
2022/10/16 10:19:39;;;;;;;5.55;1.33;;;;;;;18.18;65.54;99762.84;5113704;28;20487;-60
2022/10/16 10:22:23;;;;;;;2.63;0.85;;;;;;;18.27;65.50;99758.53;5112800;28;20225;-60
2022/10/16 10:25:13;;;;;;;3.83;1.17;;;;;;;18.39;65.43;99756.56;5110041;28;20040;-61
2022/10/16 10:28:16;;;;;;;4.20;1.13;;;;;;;18.54;65.14;99771.16;5112497;28;20051;-61
2022/10/16 10:31:06;;;;;;;2.88;1.02;;;;;;;18.71;65.94;99782.97;5094693;28;20102;-64
2022/10/16 10:33:51;;;;;;;5.35;1.33;;;;;;;18.91;65.84;99772.28;5113020;28;20047;-63
2022/10/16 10:36:40;;;;;;;1.98;0.90;;;;;;;19.04;63.68;99787.16;5112941;28;20079;-62
2022/10/16 10:39:35;;;;;;;1.85;0.90;;;;;;;19.15;63.54;99787.03;5113987;28;20077;-63
2022/10/16 10:42:21;;;;;;;3.15;0.93;;;;;;;19.26;63.32;99786.03;5112537;28;20090;-61
2022/10/16 10:45:06;;;;;;;3.88;1.00;;;;;;;19.35;64.07;99787.84;5112977;28;20138;-61
2022/10/16 10:47:48;;;;;;;4.25;1.10;;;;;;;19.37;62.54;99785.84;5113499;28;20083;-60
2022/10/16 10:50:42;;;;;;;3.42;1.05;;;;;;;19.39;62.55;99793.72;5113604;28;20394;-61
2022/10/16 10:53:13;;;;;;;3.33;1.10;;;;;;;19.49;62.59;99791.88;5110742;28;20181;-61
2022/10/16 10:56:00;;;;;;;3.45;1.10;;;;;;;19.55;62.34;99789.63;5113135;28;20048;-61
2022/10/16 10:58:52;;;;;;;4.57;0.98;;;;;;;19.66;62.62;99792.09;5113200;28;20043;-60
2022/10/16 11:01:37;;;;;;;2.47;1.00;;;;;;;19.77;62.18;99789.25;5112109;28;20090;-61
2022/10/16 11:04:26;;;;;;;4.50;1.42;;;;;;;19.93;62.85;99783.25;5113717;28;20338;-63
2022/10/16 11:06:59;;;;;;;5.85;1.25;;;;;;;20.11;63.58;99785.19;5113703;28;20047;-61
2022/10/16 11:09:46;;;;;;;2.15;1.08;;;;;;;20.29;61.68;99779.03;5112246;28;20052;-62
2022/10/16 11:12:32;;;;;;;5.72;1.80;;;;;;;20.53;62.58;99778.44;5112125;28;20104;-60
2022/10/16 11:15:01;;;;;;;3.80;1.70;;;;;;;;;;5113024;28;20082;-62
2022/10/16 11:17:35;;;;;;;6.05;2.00;;;;;;;20.99;60.84;99782.03;5112560;28;20150;-63
2022/10/16 11:20:25;;;;;;;5.47;1.80;;;;;;;21.24;60.17;99782.22;5111903;28;20079;-61
2022/10/16 11:22:58;;;;;;;6.85;1.70;;;;;;;21.46;58.11;99789.72;5112953;28;20047;-62
2022/10/16 11:25:30;;;;;;;4.35;1.60;;;;;;;21.59;59.23;99793.81;5113305;28;20043;-61
2022/10/16 11:28:20;;;;;;;4.72;1.80;;;;;;;21.69;58.70;99786.53;5112781;28;20081;-62
2022/10/16 11:31:16;;;;;;;3.85;2.03;;;;;;;22.10;60.42;99795.78;5112911;28;20062;-62
2022/10/16 11:33:51;;;;;;;4.35;2.08;;;;;;;22.64;59.27;99797.25;5103062;28;20048;-64
2022/10/16 11:36:34;;;;;;;5.78;2.20;;;;;;;23.30;59.57;99797.25;5111631;28;20094;-61
2022/10/16 11:39:10;;;;;;;3.83;2.00;;;;;;;23.95;58.06;99791.91;5111144;28;20097;-62
2022/10/16 11:41:51;;;;;;;5.43;2.53;;;;;;;24.58;55.58;99796.47;5112715;28;20074;-64
2022/10/16 11:44:44;;;;;;;6.03;2.92;;;;;;;25.05;53.44;99801.88;5111418;28;20056;-61
2022/10/16 11:47:27;;;;;;;4.50;2.42;;;;;;;25.28;51.39;99808.22;5111384;28;20570;-62
2022/10/16 11:50:17;;;;;;;5.07;2.78;;;;;;;25.32;49.91;99810.38;5110358;28;20045;-61
2022/10/16 11:52:53;;;;;;;7.22;3.42;;;;;;;25.15;48.48;99814.25;5111146;28;20043;-62
2022/10/16 11:55:24;;;;;;;7.03;3.10;;;;;;;24.88;48.30;99822.69;5109494;28;20082;-63